sensor_id;sensor_type;location;lat;lon;timestamp;P1;durP1;ratioP1;P2;durP2;ratioP2
20527;SDS011;23612;50.894;10.700;2022-12-16T00:01:30;18.63;;;7.70;;
20527;SDS011;23612;50.894;10.700;2022-12-16T00:03:57;16.67;;;7.63;;
20527;SDS011;23612;50.894;10.700;2022-12-16T00:06:24;19.57;;;7.40;;
20527;SDS011;23612;50.894;10.700;2022-12-16T00:08:53;18.27;;;7.17;;
20527;SDS011;23612;50.894;10.700;2022-12-16T00:11:19;20.43;;;8.03;;
20527;SDS011;23612;50.894;10.700;2022-12-16T00:13:44;15.73;;;7.60;;
20527;SDS011;23612;50.894;10.700;2022-12-16T00:16:11;20.07;;;7.13;;
20527;SDS011;23612;50.894;10.700;2022-12-16T00:18:39;15.10;;;7.37;;
20527;SDS011;23612;50.894;10.700;2022-12-16T00:21:05;15.97;;;7.50;;
20527;SDS011;23612;50.894;10.700;2022-12-16T00:23:31;19.07;;;8.37;;
20527;SDS011;23612;50.894;10.700;2022-12-16T00:25:58;18.90;;;7.90;;
20527;SDS011;23612;50.894;10.700;2022-12-16T00:28:23;17.40;;;8.43;;
20527;SDS011;23612;50.894;10.700;2022-12-16T00:30:50;16.83;;;8.30;;
20527;SDS011;23612;50.894;10.700;2022-12-16T00:33:16;18.03;;;8.70;;
20527;SDS011;23612;50.894;10.700;2022-12-16T00:35:44;17.63;;;8.10;;
20527;SDS011;23612;50.894;10.700;2022-12-16T00:38:10;17.00;;;7.70;;
20527;SDS011;23612;50.894;10.700;2022-12-16T00:40:35;18.63;;;8.07;;
20527;SDS011;23612;50.894;10.700;2022-12-16T00:43:01;18.23;;;7.90;;
20527;SDS011;23612;50.894;10.700;2022-12-16T00:45:26;15.60;;;7.83;;
20527;SDS011;23612;50.894;10.700;2022-12-16T00:47:52;18.33;;;7.10;;
20527;SDS011;23612;50.894;10.700;2022-12-16T00:50:18;22.40;;;7.50;;
20527;SDS011;23612;50.894;10.700;2022-12-16T00:52:44;13.43;;;6.73;;
20527;SDS011;23612;50.894;10.700;2022-12-16T00:55:11;19.23;;;7.60;;
20527;SDS011;23612;50.894;10.700;2022-12-16T00:57:37;15.83;;;7.87;;
20527;SDS011;23612;50.894;10.700;2022-12-16T01:00:02;15.13;;;6.97;;
20527;SDS011;23612;50.894;10.700;2022-12-16T01:02:29;20.27;;;7.67;;
20527;SDS011;23612;50.894;10.700;2022-12-16T01:04:55;15.20;;;7.33;;
20527;SDS011;23612;50.894;10.700;2022-12-16T01:07:21;16.50;;;7.10;;
20527;SDS011;23612;50.894;10.700;2022-12-16T01:09:46;13.83;;;6.77;;
20527;SDS011;23612;50.894;10.700;2022-12-16T01:12:12;13.80;;;7.03;;
20527;SDS011;23612;50.894;10.700;2022-12-16T01:14:38;12.87;;;6.73;;
20527;SDS011;23612;50.894;10.700;2022-12-16T01:17:03;18.13;;;7.90;;
20527;SDS011;23612;50.894;10.700;2022-12-16T01:19:29;19.50;;;7.33;;
20527;SDS011;23612;50.894;10.700;2022-12-16T01:21:55;18.43;;;7.33;;
20527;SDS011;23612;50.894;10.700;2022-12-16T01:24:20;17.50;;;6.83;;
20527;SDS011;23612;50.894;10.700;2022-12-16T01:26:46;16.47;;;7.07;;
20527;SDS011;23612;50.894;10.700;2022-12-16T01:29:11;15.27;;;7.67;;
20527;SDS011;23612;50.894;10.700;2022-12-16T01:31:37;16.43;;;7.70;;
20527;SDS011;23612;50.894;10.700;2022-12-16T01:34:03;14.60;;;6.87;;
20527;SDS011;23612;50.894;10.700;2022-12-16T01:36:28;17.60;;;7.40;;
20527;SDS011;23612;50.894;10.700;2022-12-16T01:38:54;14.17;;;6.93;;
20527;SDS011;23612;50.894;10.700;2022-12-16T01:41:19;19.33;;;7.80;;
20527;SDS011;23612;50.894;10.700;2022-12-16T01:43:45;16.20;;;7.60;;
20527;SDS011;23612;50.894;10.700;2022-12-16T01:51:25;14.40;;;6.27;;
20527;SDS011;23612;50.894;10.700;2022-12-16T01:53:59;12.30;;;6.03;;
20527;SDS011;23612;50.894;10.700;2022-12-16T01:56:32;14.20;;;6.73;;
20527;SDS011;23612;50.894;10.700;2022-12-16T01:58:59;15.40;;;6.63;;
20527;SDS011;23612;50.894;10.700;2022-12-16T02:01:25;15.57;;;6.17;;
20527;SDS011;23612;50.894;10.700;2022-12-16T02:03:51;17.83;;;7.53;;
20527;SDS011;23612;50.894;10.700;2022-12-16T02:06:20;15.33;;;7.10;;
20527;SDS011;23612;50.894;10.700;2022-12-16T02:08:46;18.30;;;7.23;;
20527;SDS011;23612;50.894;10.700;2022-12-16T02:12:00;17.17;;;7.63;;
20527;SDS011;23612;50.894;10.700;2022-12-16T02:14:26;18.47;;;7.80;;
20527;SDS011;23612;50.894;10.700;2022-12-16T02:17:27;16.17;;;7.10;;
20527;SDS011;23612;50.894;10.700;2022-12-16T02:23:04;16.10;;;7.23;;
20527;SDS011;23612;50.894;10.700;2022-12-16T02:28:12;14.30;;;7.43;;
20527;SDS011;23612;50.894;10.700;2022-12-16T02:31:03;19.03;;;8.33;;
20527;SDS011;23612;50.894;10.700;2022-12-16T02:41:30;20.63;;;7.87;;
20527;SDS011;23612;50.894;10.700;2022-12-16T02:43:58;18.67;;;7.70;;
20527;SDS011;23612;50.894;10.700;2022-12-16T02:46:31;15.07;;;7.33;;
20527;SDS011;23612;50.894;10.700;2022-12-16T02:49:08;15.80;;;6.57;;
20527;SDS011;23612;50.894;10.700;2022-12-16T02:51:54;16.60;;;6.83;;
20527;SDS011;23612;50.894;10.700;2022-12-16T02:54:22;17.07;;;8.00;;
20527;SDS011;23612;50.894;10.700;2022-12-16T02:56:52;15.20;;;7.20;;
20527;SDS011;23612;50.894;10.700;2022-12-16T02:59:49;18.73;;;6.77;;
20527;SDS011;23612;50.894;10.700;2022-12-16T03:02:35;16.87;;;7.83;;
20527;SDS011;23612;50.894;10.700;2022-12-16T03:05:13;16.40;;;7.50;;
20527;SDS011;23612;50.894;10.700;2022-12-16T03:07:49;13.60;;;6.60;;
20527;SDS011;23612;50.894;10.700;2022-12-16T03:10:18;16.03;;;6.70;;
20527;SDS011;23612;50.894;10.700;2022-12-16T03:12:48;14.97;;;6.67;;
20527;SDS011;23612;50.894;10.700;2022-12-16T03:15:16;13.83;;;6.50;;
20527;SDS011;23612;50.894;10.700;2022-12-16T03:17:45;13.43;;;6.37;;
20527;SDS011;23612;50.894;10.700;2022-12-16T03:20:15;16.87;;;6.60;;
20527;SDS011;23612;50.894;10.700;2022-12-16T03:22:59;11.07;;;5.67;;
20527;SDS011;23612;50.894;10.700;2022-12-16T03:25:30;14.17;;;5.83;;
20527;SDS011;23612;50.894;10.700;2022-12-16T03:30:36;14.10;;;5.67;;
20527;SDS011;23612;50.894;10.700;2022-12-16T03:33:17;11.27;;;5.47;;
20527;SDS011;23612;50.894;10.700;2022-12-16T03:35:50;12.83;;;5.33;;
20527;SDS011;23612;50.894;10.700;2022-12-16T03:38:21;11.33;;;4.93;;
20527;SDS011;23612;50.894;10.700;2022-12-16T03:40:47;6.13;;;3.97;;
20527;SDS011;23612;50.894;10.700;2022-12-16T03:43:14;9.07;;;4.77;;
20527;SDS011;23612;50.894;10.700;2022-12-16T03:45:41;9.93;;;4.97;;
20527;SDS011;23612;50.894;10.700;2022-12-16T03:48:10;12.00;;;6.43;;
20527;SDS011;23612;50.894;10.700;2022-12-16T03:50:37;14.43;;;6.77;;
20527;SDS011;23612;50.894;10.700;2022-12-16T03:53:04;12.63;;;6.53;;
20527;SDS011;23612;50.894;10.700;2022-12-16T03:55:30;12.87;;;6.10;;
20527;SDS011;23612;50.894;10.700;2022-12-16T03:57:56;13.70;;;5.00;;
20527;SDS011;23612;50.894;10.700;2022-12-16T04:00:22;11.67;;;5.43;;
20527;SDS011;23612;50.894;10.700;2022-12-16T04:02:49;9.40;;;5.47;;
20527;SDS011;23612;50.894;10.700;2022-12-16T04:05:14;12.67;;;5.70;;
20527;SDS011;23612;50.894;10.700;2022-12-16T04:07:40;14.00;;;6.47;;
20527;SDS011;23612;50.894;10.700;2022-12-16T04:10:06;13.00;;;4.80;;
20527;SDS011;23612;50.894;10.700;2022-12-16T04:12:32;11.50;;;5.37;;
20527;SDS011;23612;50.894;10.700;2022-12-16T04:15:16;9.53;;;5.17;;
20527;SDS011;23612;50.894;10.700;2022-12-16T04:18:02;14.67;;;7.20;;
20527;SDS011;23612;50.894;10.700;2022-12-16T04:20:56;15.33;;;7.73;;
20527;SDS011;23612;50.894;10.700;2022-12-16T04:23:44;16.87;;;8.83;;
20527;SDS011;23612;50.894;10.700;2022-12-16T04:26:34;16.30;;;7.80;;
20527;SDS011;23612;50.894;10.700;2022-12-16T04:29:20;14.57;;;6.90;;
20527;SDS011;23612;50.894;10.700;2022-12-16T04:31:45;14.20;;;6.50;;
20527;SDS011;23612;50.894;10.700;2022-12-16T04:34:11;12.00;;;4.87;;
20527;SDS011;23612;50.894;10.700;2022-12-16T04:36:49;8.90;;;4.73;;
20527;SDS011;23612;50.894;10.700;2022-12-16T04:39:34;10.40;;;5.03;;
20527;SDS011;23612;50.894;10.700;2022-12-16T04:42:18;12.03;;;5.30;;
20527;SDS011;23612;50.894;10.700;2022-12-16T04:45:04;12.43;;;5.17;;
20527;SDS011;23612;50.894;10.700;2022-12-16T04:47:48;12.13;;;5.30;;
20527;SDS011;23612;50.894;10.700;2022-12-16T04:50:33;9.93;;;5.17;;
20527;SDS011;23612;50.894;10.700;2022-12-16T04:53:17;12.60;;;5.73;;
20527;SDS011;23612;50.894;10.700;2022-12-16T04:56:01;11.33;;;5.60;;
20527;SDS011;23612;50.894;10.700;2022-12-16T04:58:45;13.60;;;6.50;;
20527;SDS011;23612;50.894;10.700;2022-12-16T05:01:29;13.17;;;5.90;;
20527;SDS011;23612;50.894;10.700;2022-12-16T05:04:13;15.57;;;6.47;;
20527;SDS011;23612;50.894;10.700;2022-12-16T05:06:57;15.50;;;7.07;;
20527;SDS011;23612;50.894;10.700;2022-12-16T05:10:01;14.90;;;7.17;;
20527;SDS011;23612;50.894;10.700;2022-12-16T05:12:45;16.43;;;7.10;;
20527;SDS011;23612;50.894;10.700;2022-12-16T05:15:29;16.07;;;6.73;;
20527;SDS011;23612;50.894;10.700;2022-12-16T05:18:14;14.63;;;6.83;;
20527;SDS011;23612;50.894;10.700;2022-12-16T05:20:59;15.20;;;6.77;;
20527;SDS011;23612;50.894;10.700;2022-12-16T05:23:44;17.57;;;7.53;;
20527;SDS011;23612;50.894;10.700;2022-12-16T05:26:29;21.13;;;8.70;;
20527;SDS011;23612;50.894;10.700;2022-12-16T05:29:13;31.13;;;12.40;;
20527;SDS011;23612;50.894;10.700;2022-12-16T05:31:57;19.07;;;7.73;;
20527;SDS011;23612;50.894;10.700;2022-12-16T05:34:41;15.63;;;7.73;;
20527;SDS011;23612;50.894;10.700;2022-12-16T05:37:25;18.47;;;7.63;;
20527;SDS011;23612;50.894;10.700;2022-12-16T05:40:10;16.83;;;7.80;;
20527;SDS011;23612;50.894;10.700;2022-12-16T05:42:55;16.43;;;7.23;;
20527;SDS011;23612;50.894;10.700;2022-12-16T05:45:39;36.60;;;12.53;;
20527;SDS011;23612;50.894;10.700;2022-12-16T05:48:24;14.93;;;7.20;;
20527;SDS011;23612;50.894;10.700;2022-12-16T05:51:09;50.93;;;24.13;;
20527;SDS011;23612;50.894;10.700;2022-12-16T05:53:53;59.13;;;32.10;;
20527;SDS011;23612;50.894;10.700;2022-12-16T05:56:37;13.70;;;7.77;;
20527;SDS011;23612;50.894;10.700;2022-12-16T05:59:21;28.07;;;17.67;;
20527;SDS011;23612;50.894;10.700;2022-12-16T06:02:05;25.80;;;10.80;;
20527;SDS011;23612;50.894;10.700;2022-12-16T06:04:49;18.17;;;7.90;;
20527;SDS011;23612;50.894;10.700;2022-12-16T06:07:33;14.83;;;6.67;;
20527;SDS011;23612;50.894;10.700;2022-12-16T06:10:18;13.57;;;7.20;;
20527;SDS011;23612;50.894;10.700;2022-12-16T06:13:02;15.40;;;8.10;;
20527;SDS011;23612;50.894;10.700;2022-12-16T06:15:46;17.40;;;7.63;;
20527;SDS011;23612;50.894;10.700;2022-12-16T06:18:30;49.53;;;20.57;;
20527;SDS011;23612;50.894;10.700;2022-12-16T06:21:14;27.50;;;13.33;;
20527;SDS011;23612;50.894;10.700;2022-12-16T06:23:59;21.17;;;8.90;;
20527;SDS011;23612;50.894;10.700;2022-12-16T06:26:43;18.93;;;8.20;;
20527;SDS011;23612;50.894;10.700;2022-12-16T06:29:27;16.37;;;9.33;;
20527;SDS011;23612;50.894;10.700;2022-12-16T06:32:11;19.57;;;10.33;;
20527;SDS011;23612;50.894;10.700;2022-12-16T06:34:55;21.37;;;9.90;;
20527;SDS011;23612;50.894;10.700;2022-12-16T06:37:39;21.70;;;10.57;;
20527;SDS011;23612;50.894;10.700;2022-12-16T06:40:23;21.87;;;8.90;;
20527;SDS011;23612;50.894;10.700;2022-12-16T06:43:07;17.30;;;9.47;;
20527;SDS011;23612;50.894;10.700;2022-12-16T06:45:51;21.30;;;10.90;;
20527;SDS011;23612;50.894;10.700;2022-12-16T06:48:35;34.53;;;16.57;;
20527;SDS011;23612;50.894;10.700;2022-12-16T06:51:19;29.43;;;13.50;;
20527;SDS011;23612;50.894;10.700;2022-12-16T06:54:03;25.87;;;12.43;;
20527;SDS011;23612;50.894;10.700;2022-12-16T06:56:47;26.20;;;13.20;;
20527;SDS011;23612;50.894;10.700;2022-12-16T06:59:31;22.53;;;11.63;;
20527;SDS011;23612;50.894;10.700;2022-12-16T07:02:15;21.00;;;10.40;;
20527;SDS011;23612;50.894;10.700;2022-12-16T07:04:59;23.50;;;9.80;;
20527;SDS011;23612;50.894;10.700;2022-12-16T07:07:47;23.20;;;10.37;;
20527;SDS011;23612;50.894;10.700;2022-12-16T07:10:32;26.10;;;12.80;;
20527;SDS011;23612;50.894;10.700;2022-12-16T07:13:16;23.63;;;12.23;;
20527;SDS011;23612;50.894;10.700;2022-12-16T07:16:00;22.10;;;10.20;;
20527;SDS011;23612;50.894;10.700;2022-12-16T07:18:44;25.45;;;13.27;;
20527;SDS011;23612;50.894;10.700;2022-12-16T07:21:28;24.97;;;12.70;;
20527;SDS011;23612;50.894;10.700;2022-12-16T07:24:12;21.93;;;10.37;;
20527;SDS011;23612;50.894;10.700;2022-12-16T07:27:13;25.10;;;12.15;;
20527;SDS011;23612;50.894;10.700;2022-12-16T07:29:57;33.67;;;13.90;;
20527;SDS011;23612;50.894;10.700;2022-12-16T07:32:41;45.20;;;18.73;;
20527;SDS011;23612;50.894;10.700;2022-12-16T07:35:26;63.33;;;21.50;;
20527;SDS011;23612;50.894;10.700;2022-12-16T07:38:10;87.10;;;30.33;;
20527;SDS011;23612;50.894;10.700;2022-12-16T07:40:54;82.03;;;28.43;;
20527;SDS011;23612;50.894;10.700;2022-12-16T07:43:38;75.07;;;26.27;;
20527;SDS011;23612;50.894;10.700;2022-12-16T07:46:22;56.33;;;21.73;;
20527;SDS011;23612;50.894;10.700;2022-12-16T07:49:06;36.10;;;16.33;;
20527;SDS011;23612;50.894;10.700;2022-12-16T07:51:50;29.43;;;14.80;;
20527;SDS011;23612;50.894;10.700;2022-12-16T07:54:34;35.80;;;17.37;;
20527;SDS011;23612;50.894;10.700;2022-12-16T07:57:18;66.50;;;26.43;;
20527;SDS011;23612;50.894;10.700;2022-12-16T08:00:02;93.27;;;35.13;;
20527;SDS011;23612;50.894;10.700;2022-12-16T08:02:54;169.07;;;49.37;;
20527;SDS011;23612;50.894;10.700;2022-12-16T08:05:38;199.13;;;49.50;;
20527;SDS011;23612;50.894;10.700;2022-12-16T08:08:22;179.07;;;41.50;;
20527;SDS011;23612;50.894;10.700;2022-12-16T08:11:06;112.17;;;36.53;;
20527;SDS011;23612;50.894;10.700;2022-12-16T08:13:50;117.67;;;32.00;;
20527;SDS011;23612;50.894;10.700;2022-12-16T08:16:34;120.87;;;35.03;;
20527;SDS011;23612;50.894;10.700;2022-12-16T08:19:19;120.47;;;31.57;;
20527;SDS011;23612;50.894;10.700;2022-12-16T08:22:03;163.63;;;31.43;;
20527;SDS011;23612;50.894;10.700;2022-12-16T08:24:47;119.20;;;26.73;;
20527;SDS011;23612;50.894;10.700;2022-12-16T08:27:31;109.80;;;27.07;;
20527;SDS011;23612;50.894;10.700;2022-12-16T08:30:15;150.33;;;35.10;;
20527;SDS011;23612;50.894;10.700;2022-12-16T08:32:59;114.80;;;38.07;;
20527;SDS011;23612;50.894;10.700;2022-12-16T08:35:43;114.33;;;32.73;;
20527;SDS011;23612;50.894;10.700;2022-12-16T08:38:27;104.17;;;30.07;;
20527;SDS011;23612;50.894;10.700;2022-12-16T08:41:11;103.07;;;30.23;;
20527;SDS011;23612;50.894;10.700;2022-12-16T08:43:55;90.17;;;27.77;;
20527;SDS011;23612;50.894;10.700;2022-12-16T08:46:39;84.63;;;28.63;;
20527;SDS011;23612;50.894;10.700;2022-12-16T08:49:23;144.13;;;27.07;;
20527;SDS011;23612;50.894;10.700;2022-12-16T08:52:07;92.17;;;26.23;;
20527;SDS011;23612;50.894;10.700;2022-12-16T08:54:52;78.67;;;25.33;;
20527;SDS011;23612;50.894;10.700;2022-12-16T08:57:35;68.83;;;24.53;;
20527;SDS011;23612;50.894;10.700;2022-12-16T09:00:30;75.90;;;25.00;;
20527;SDS011;23612;50.894;10.700;2022-12-16T09:03:14;74.80;;;23.80;;
20527;SDS011;23612;50.894;10.700;2022-12-16T09:05:59;84.87;;;23.90;;
20527;SDS011;23612;50.894;10.700;2022-12-16T09:08:43;83.57;;;22.23;;
20527;SDS011;23612;50.894;10.700;2022-12-16T09:11:27;89.60;;;21.80;;
20527;SDS011;23612;50.894;10.700;2022-12-16T09:14:11;66.10;;;20.20;;
20527;SDS011;23612;50.894;10.700;2022-12-16T09:16:55;66.57;;;23.00;;
20527;SDS011;23612;50.894;10.700;2022-12-16T09:19:39;92.13;;;19.00;;
20527;SDS011;23612;50.894;10.700;2022-12-16T09:22:23;80.73;;;18.90;;
20527;SDS011;23612;50.894;10.700;2022-12-16T09:25:07;60.00;;;17.50;;
20527;SDS011;23612;50.894;10.700;2022-12-16T09:27:51;74.47;;;26.37;;
20527;SDS011;23612;50.894;10.700;2022-12-16T09:30:35;53.63;;;19.47;;
20527;SDS011;23612;50.894;10.700;2022-12-16T09:33:19;61.17;;;21.90;;
20527;SDS011;23612;50.894;10.700;2022-12-16T09:36:03;50.63;;;18.93;;
20527;SDS011;23612;50.894;10.700;2022-12-16T09:38:47;66.27;;;19.67;;
20527;SDS011;23612;50.894;10.700;2022-12-16T09:47:33;48.00;;;17.80;;
20527;SDS011;23612;50.894;10.700;2022-12-16T09:50:25;60.07;;;25.77;;
20527;SDS011;23612;50.894;10.700;2022-12-16T09:53:12;60.90;;;19.10;;
20527;SDS011;23612;50.894;10.700;2022-12-16T09:55:59;60.87;;;22.07;;
20527;SDS011;23612;50.894;10.700;2022-12-16T09:58:53;61.17;;;20.47;;
20527;SDS011;23612;50.894;10.700;2022-12-16T10:01:41;63.80;;;21.00;;
20527;SDS011;23612;50.894;10.700;2022-12-16T10:04:26;54.43;;;21.83;;
20527;SDS011;23612;50.894;10.700;2022-12-16T10:07:27;64.37;;;26.53;;
20527;SDS011;23612;50.894;10.700;2022-12-16T10:10:34;51.60;;;20.93;;
20527;SDS011;23612;50.894;10.700;2022-12-16T10:16:32;67.37;;;23.30;;
20527;SDS011;23612;50.894;10.700;2022-12-16T10:19:46;55.10;;;23.10;;
20527;SDS011;23612;50.894;10.700;2022-12-16T10:28:44;53.37;;;21.67;;
20527;SDS011;23612;50.894;10.700;2022-12-16T10:31:29;57.60;;;25.58;;
20527;SDS011;23612;50.894;10.700;2022-12-16T10:34:18;67.43;;;26.47;;
20527;SDS011;23612;50.894;10.700;2022-12-16T10:37:07;43.27;;;20.13;;
20527;SDS011;23612;50.894;10.700;2022-12-16T10:39:57;79.83;;;29.73;;
20527;SDS011;23612;50.894;10.700;2022-12-16T10:42:47;75.60;;;30.33;;
20527;SDS011;23612;50.894;10.700;2022-12-16T10:45:37;98.23;;;42.27;;
20527;SDS011;23612;50.894;10.700;2022-12-16T10:48:26;53.80;;;24.57;;
20527;SDS011;23612;50.894;10.700;2022-12-16T10:51:32;46.00;;;20.10;;
20527;SDS011;23612;50.894;10.700;2022-12-16T11:03:32;51.30;;;19.60;;
20527;SDS011;23612;50.894;10.700;2022-12-16T11:06:25;66.30;;;30.03;;
20527;SDS011;23612;50.894;10.700;2022-12-16T11:12:22;78.03;;;35.20;;
20527;SDS011;23612;50.894;10.700;2022-12-16T11:15:17;50.93;;;22.80;;
20527;SDS011;23612;50.894;10.700;2022-12-16T11:24:18;82.10;;;36.17;;
20527;SDS011;23612;50.894;10.700;2022-12-16T11:27:04;64.23;;;31.60;;
20527;SDS011;23612;50.894;10.700;2022-12-16T11:30:17;39.67;;;20.13;;
20527;SDS011;23612;50.894;10.700;2022-12-16T11:33:25;40.47;;;19.70;;
20527;SDS011;23612;50.894;10.700;2022-12-16T11:36:13;37.50;;;19.40;;
20527;SDS011;23612;50.894;10.700;2022-12-16T11:39:01;46.23;;;23.03;;
20527;SDS011;23612;50.894;10.700;2022-12-16T11:41:47;36.10;;;18.63;;
20527;SDS011;23612;50.894;10.700;2022-12-16T11:44:35;46.33;;;20.70;;
20527;SDS011;23612;50.894;10.700;2022-12-16T11:47:34;48.57;;;22.47;;
20527;SDS011;23612;50.894;10.700;2022-12-16T11:50:29;43.27;;;20.10;;
20527;SDS011;23612;50.894;10.700;2022-12-16T11:53:24;38.53;;;18.20;;
20527;SDS011;23612;50.894;10.700;2022-12-16T11:56:31;35.10;;;17.17;;
20527;SDS011;23612;50.894;10.700;2022-12-16T11:59:24;45.67;;;21.67;;
20527;SDS011;23612;50.894;10.700;2022-12-16T12:02:21;37.90;;;20.27;;
20527;SDS011;23612;50.894;10.700;2022-12-16T12:08:34;35.17;;;18.03;;
20527;SDS011;23612;50.894;10.700;2022-12-16T12:11:45;35.93;;;17.97;;
20527;SDS011;23612;50.894;10.700;2022-12-16T12:14:44;36.37;;;19.50;;
20527;SDS011;23612;50.894;10.700;2022-12-16T12:17:38;35.30;;;19.80;;
20527;SDS011;23612;50.894;10.700;2022-12-16T12:26:29;37.93;;;20.60;;
20527;SDS011;23612;50.894;10.700;2022-12-16T12:35:53;40.80;;;19.80;;
20527;SDS011;23612;50.894;10.700;2022-12-16T12:47:39;31.93;;;17.77;;
20527;SDS011;23612;50.894;10.700;2022-12-16T12:50:43;33.50;;;18.13;;
20527;SDS011;23612;50.894;10.700;2022-12-16T12:53:49;43.23;;;19.73;;
20527;SDS011;23612;50.894;10.700;2022-12-16T12:56:46;39.00;;;19.93;;
20527;SDS011;23612;50.894;10.700;2022-12-16T13:00:16;35.20;;;17.90;;
20527;SDS011;23612;50.894;10.700;2022-12-16T13:06:06;32.63;;;16.30;;
20527;SDS011;23612;50.894;10.700;2022-12-16T13:11:36;31.60;;;16.00;;
20527;SDS011;23612;50.894;10.700;2022-12-16T13:17:14;31.13;;;16.33;;
20527;SDS011;23612;50.894;10.700;2022-12-16T13:23:22;36.80;;;18.73;;
20527;SDS011;23612;50.894;10.700;2022-12-16T13:26:16;30.57;;;16.53;;
20527;SDS011;23612;50.894;10.700;2022-12-16T13:29:17;46.00;;;22.80;;
20527;SDS011;23612;50.894;10.700;2022-12-16T13:32:17;32.23;;;18.63;;
20527;SDS011;23612;50.894;10.700;2022-12-16T13:35:05;36.40;;;17.63;;
20527;SDS011;23612;50.894;10.700;2022-12-16T13:38:19;32.10;;;17.70;;
20527;SDS011;23612;50.894;10.700;2022-12-16T13:44:07;40.43;;;19.73;;
20527;SDS011;23612;50.894;10.700;2022-12-16T13:46:52;37.23;;;19.73;;
20527;SDS011;23612;50.894;10.700;2022-12-16T13:52:34;41.80;;;22.00;;
20527;SDS011;23612;50.894;10.700;2022-12-16T13:58:49;42.17;;;21.87;;
20527;SDS011;23612;50.894;10.700;2022-12-16T14:01:37;38.83;;;21.07;;
20527;SDS011;23612;50.894;10.700;2022-12-16T14:04:25;41.10;;;22.47;;
20527;SDS011;23612;50.894;10.700;2022-12-16T14:07:15;51.57;;;24.60;;
20527;SDS011;23612;50.894;10.700;2022-12-16T14:10:00;44.90;;;23.60;;
20527;SDS011;23612;50.894;10.700;2022-12-16T14:12:52;37.83;;;19.90;;
20527;SDS011;23612;50.894;10.700;2022-12-16T14:15:50;33.97;;;17.20;;
20527;SDS011;23612;50.894;10.700;2022-12-16T14:18:56;35.50;;;18.33;;
20527;SDS011;23612;50.894;10.700;2022-12-16T14:21:51;38.47;;;18.90;;
20527;SDS011;23612;50.894;10.700;2022-12-16T14:24:42;36.33;;;18.80;;
20527;SDS011;23612;50.894;10.700;2022-12-16T14:27:27;38.63;;;16.43;;
20527;SDS011;23612;50.894;10.700;2022-12-16T14:30:19;34.40;;;17.43;;
20527;SDS011;23612;50.894;10.700;2022-12-16T14:33:16;32.10;;;16.43;;
20527;SDS011;23612;50.894;10.700;2022-12-16T14:36:22;31.60;;;16.53;;
20527;SDS011;23612;50.894;10.700;2022-12-16T14:39:20;32.43;;;17.80;;
20527;SDS011;23612;50.894;10.700;2022-12-16T14:42:17;34.33;;;15.80;;
20527;SDS011;23612;50.894;10.700;2022-12-16T14:45:16;34.47;;;17.23;;
20527;SDS011;23612;50.894;10.700;2022-12-16T14:54:15;38.70;;;19.80;;
20527;SDS011;23612;50.894;10.700;2022-12-16T14:57:01;37.47;;;19.77;;
20527;SDS011;23612;50.894;10.700;2022-12-16T14:59:46;34.30;;;16.53;;
20527;SDS011;23612;50.894;10.700;2022-12-16T15:02:37;35.27;;;19.17;;
20527;SDS011;23612;50.894;10.700;2022-12-16T15:05:26;42.60;;;22.40;;
20527;SDS011;23612;50.894;10.700;2022-12-16T15:08:14;30.33;;;16.73;;
20527;SDS011;23612;50.894;10.700;2022-12-16T15:10:58;37.77;;;19.20;;
20527;SDS011;23612;50.894;10.700;2022-12-16T15:13:43;39.23;;;17.17;;
20527;SDS011;23612;50.894;10.700;2022-12-16T15:16:30;34.80;;;16.83;;
20527;SDS011;23612;50.894;10.700;2022-12-16T15:19:18;43.33;;;20.43;;
20527;SDS011;23612;50.894;10.700;2022-12-16T15:22:04;37.33;;;19.13;;
20527;SDS011;23612;50.894;10.700;2022-12-16T15:24:48;34.57;;;16.93;;
20527;SDS011;23612;50.894;10.700;2022-12-16T15:27:36;55.17;;;28.83;;
20527;SDS011;23612;50.894;10.700;2022-12-16T15:33:21;37.00;;;18.07;;
20527;SDS011;23612;50.894;10.700;2022-12-16T15:36:24;37.60;;;19.50;;
20527;SDS011;23612;50.894;10.700;2022-12-16T15:39:10;42.23;;;20.17;;
20527;SDS011;23612;50.894;10.700;2022-12-16T15:42:03;38.67;;;22.00;;
20527;SDS011;23612;50.894;10.700;2022-12-16T15:44:48;54.57;;;30.93;;
20527;SDS011;23612;50.894;10.700;2022-12-16T15:47:35;99.03;;;55.43;;
20527;SDS011;23612;50.894;10.700;2022-12-16T15:50:24;63.07;;;34.63;;
20527;SDS011;23612;50.894;10.700;2022-12-16T15:53:31;46.93;;;23.73;;
20527;SDS011;23612;50.894;10.700;2022-12-16T15:56:40;42.80;;;20.97;;
20527;SDS011;23612;50.894;10.700;2022-12-16T15:59:28;39.10;;;19.97;;
20527;SDS011;23612;50.894;10.700;2022-12-16T16:05:21;39.43;;;21.27;;
20527;SDS011;23612;50.894;10.700;2022-12-16T16:08:08;41.93;;;19.87;;
20527;SDS011;23612;50.894;10.700;2022-12-16T16:10:53;41.93;;;19.20;;
20527;SDS011;23612;50.894;10.700;2022-12-16T16:13:37;49.87;;;23.37;;
20527;SDS011;23612;50.894;10.700;2022-12-16T16:16:21;54.73;;;26.30;;
20527;SDS011;23612;50.894;10.700;2022-12-16T16:19:10;70.37;;;31.80;;
20527;SDS011;23612;50.894;10.700;2022-12-16T16:21:58;72.67;;;32.93;;
20527;SDS011;23612;50.894;10.700;2022-12-16T16:24:42;73.67;;;32.30;;
20527;SDS011;23612;50.894;10.700;2022-12-16T16:27:26;83.77;;;31.70;;
20527;SDS011;23612;50.894;10.700;2022-12-16T16:30:12;61.40;;;29.87;;
20527;SDS011;23612;50.894;10.700;2022-12-16T16:32:56;67.50;;;30.83;;
20527;SDS011;23612;50.894;10.700;2022-12-16T16:35:40;54.00;;;24.90;;
20527;SDS011;23612;50.894;10.700;2022-12-16T16:38:24;58.60;;;27.67;;
20527;SDS011;23612;50.894;10.700;2022-12-16T16:41:11;57.70;;;23.53;;
20527;SDS011;23612;50.894;10.700;2022-12-16T16:43:57;46.60;;;21.40;;
20527;SDS011;23612;50.894;10.700;2022-12-16T16:46:41;50.47;;;23.93;;
20527;SDS011;23612;50.894;10.700;2022-12-16T16:49:30;52.47;;;23.27;;
20527;SDS011;23612;50.894;10.700;2022-12-16T16:52:16;52.90;;;24.30;;
20527;SDS011;23612;50.894;10.700;2022-12-16T16:55:02;54.90;;;26.33;;
20527;SDS011;23612;50.894;10.700;2022-12-16T16:57:47;54.10;;;26.87;;
20527;SDS011;23612;50.894;10.700;2022-12-16T17:00:31;67.77;;;30.40;;
20527;SDS011;23612;50.894;10.700;2022-12-16T17:03:15;60.03;;;29.37;;
20527;SDS011;23612;50.894;10.700;2022-12-16T17:05:59;59.30;;;26.43;;
20527;SDS011;23612;50.894;10.700;2022-12-16T17:08:43;62.97;;;28.87;;
20527;SDS011;23612;50.894;10.700;2022-12-16T17:11:27;55.10;;;25.53;;
20527;SDS011;23612;50.894;10.700;2022-12-16T17:14:13;58.73;;;25.63;;
20527;SDS011;23612;50.894;10.700;2022-12-16T17:17:01;54.37;;;25.77;;
20527;SDS011;23612;50.894;10.700;2022-12-16T17:19:46;58.70;;;25.83;;
20527;SDS011;23612;50.894;10.700;2022-12-16T17:22:30;58.23;;;26.33;;
20527;SDS011;23612;50.894;10.700;2022-12-16T17:25:14;63.67;;;27.43;;
20527;SDS011;23612;50.894;10.700;2022-12-16T17:27:59;65.33;;;27.67;;
20527;SDS011;23612;50.894;10.700;2022-12-16T17:30:50;70.13;;;29.63;;
20527;SDS011;23612;50.894;10.700;2022-12-16T17:33:35;56.40;;;25.43;;
20527;SDS011;23612;50.894;10.700;2022-12-16T17:36:19;51.53;;;22.90;;
20527;SDS011;23612;50.894;10.700;2022-12-16T17:39:03;57.23;;;25.00;;